Bookmark and Share
Track history (hours):
 

Santa Rita

Last reported at 2014-Apr-21 06:00 UTC. Time now 2014-Apr-24 19:31 UTC.
Position S 29°12' W 048°54'.

Length 300 m; draft 8.3 m.

Type: Cargo ship. MMSI: 218670000.

Wind from 070 at 9 knots

Waves 1.0 meters (3 feet), 5 second period

Barometer 1017.7 mb
Air temperature 21.0 ° C
Visibility: greater than 10.8 NM
Dewpoint 14.2 ° C
Water temperature 22.0 ° C

NotesDate/timePositionNaut miles runAvg speedWind from/ knotsBaromVisibWave heightAir tempDewpointWater temp
2014-Apr-21 06:00S 29°12' W 048°54'7813.3 070 / 91017.710.8 1.021.014.222.0
2014-Apr-21 00:10S 28°02' W 048°16'813.7
2014-Apr-20 23:33S 27°54' W 048°12'1413.6
2014-Apr-20 22:33S 27°42' W 048°06'1313.3
2014-Apr-20 21:33S 27°29' W 048°00'219 6.0
2014-Apr-19 09:09S 24°08' W 046°24'914.8
2014-Apr-19 08:33S 24°00' W 046°20'4 3.5
2014-Apr-19 07:33S 23°58' W 046°18'0 0.0
2014-Apr-19 06:31S 23°58' W 046°18'0 0.0
2014-Apr-19 05:25S 23°58' W 046°18'0 0.0
2014-Apr-19 04:31S 23°58' W 046°18'0 0.0
2014-Apr-19 03:31S 23°58' W 046°18'0 0.0
2014-Apr-19 02:31S 23°58' W 046°18'0 0.0
2014-Apr-19 01:28S 23°58' W 046°18'0 0.0
2014-Apr-19 00:33S 23°58' W 046°18'0 0.0
2014-Apr-18 23:34S 23°58' W 046°18'0 0.0
2014-Apr-18 22:31S 23°58' W 046°18'0 0.0
2014-Apr-18 21:34S 23°58' W 046°18'0 0.0
2014-Apr-18 20:28S 23°58' W 046°18'0 0.0
2014-Apr-18 19:30S 23°58' W 046°18'0 0.0
2014-Apr-18 18:34S 23°58' W 046°18'0 0.0
2014-Apr-18 17:34S 23°58' W 046°18'0 0.0
2014-Apr-18 16:33S 23°58' W 046°18'0 0.0
2014-Apr-18 15:33S 23°58' W 046°18'0 0.0
2014-Apr-18 14:33S 23°58' W 046°18'0 0.0
2014-Apr-18 13:33S 23°58' W 046°18'0 0.0
2014-Apr-18 12:30S 23°58' W 046°18'0 0.0
2014-Apr-18 11:34S 23°58' W 046°18'0 0.0
2014-Apr-18 10:31S 23°58' W 046°18'0 0.0
2014-Apr-18 09:33S 23°58' W 046°18'1 0.7
2014-Apr-18 08:33S 23°58' W 046°17'8 7.8
2014-Apr-18 07:33S 24°06' W 046°19'1 0.1
2014-Apr-17 10:29S 24°06' W 046°20'1314.4
2014-Apr-17 09:34S 24°04' W 046°05'  
2014-Apr-13 12:00S 06°24' W 033°30'12120.2 100 / 121012.910.8 0.528.322.127.0
2014-Apr-13 06:00S 04°30' W 032°48'31117.3 110 / 141011.010.8 1.527.022.627.0
2014-Apr-12 12:00N 00°24' W 031°06'8914.9 060 / 71014.010.8 0.528.323.027.0
2014-Apr-12 06:00N 01°48' W 030°36'13121.8 060 / 71011.310.8 26.020.327.0
2014-Apr-12 00:00N 03°54' W 030°00'17319.2 030 / 181014.1 5.4 28.124.527.0
2014-Apr-11 15:00N 06°36' W 029°00'5518.4 020 / 131015.010.8 1.029.019.925.0
2014-Apr-11 12:00N 07°30' W 028°48'   050 / 121015.210.8 0.527.218.224.0

Dump ship's entire track history

sailing weather and tide predictions

Santa Rita — DIOY2 — position and weather